Terminal Aerodrome Forecast
Issued by NWS

Home | Current Version | Previous Version | Graphics & Text | Print | Product List | Glossary On
Versions: 1 2 3 4 5 6 7 8 9 10 11 12 13 14 15 16 17 18 19 20 21
000
FTUS43 KBIS 262300
TAFDIK
TAF
KDIK 262320Z 2700/2724 11005KT P6SM BKN025
     FM270200 11006KT P6SM SCT040 BKN100
     FM270700 16011KT P6SM OVC050
     FM270800 16011KT 1SM -SN OVC015
     FM271200 18011KT P6SM OVC019
     FM271700 29012KT P6SM BKN090
     FM272000 32015G23KT P6SM SCT100=

USA.gov is the U.S. government's official web portal to all federal, state and local government web resources and services.